M I D A S
Marine Information and Data Acquisition System
Tripno 2121 of the Zeeleeuw from 2011-06-16 07:04:24 to 2011-06-16 16:24:50
Back to CruiseResearch ActivitiesStationsMapUnderway DataData graphs

EquipmentUnitsComment
TimeDGPSUTC
LatitudeDGPSDM.mWGS84
LongitudeDGPSDM.mWGS84
HeadingGyrodeg 
SOGDGPSknotsSpeed over ground
COGDGPSdegCourse over ground
DepthEcho soundermeters200 kHz
Missing or incorrect values are displayed as -999
Navigation data collected by the RV Zeeleeuw from 2011-06-16 06:53:31 to 2011-06-16 16:31:56
Time Latitude Longitude Heading SOG COG Depth
2011-06-16 06:54:39 51°13.658 2°55.935 110.4 4.1 292 -999
2011-06-16 06:55:39 51°13.679 2°55.837 107.5 3.6 286 -999
2011-06-16 06:56:39 51°13.693 2°55.753 98.4 2.6 282 -999
2011-06-16 06:57:39 51°13.703 2°55.752 50.8 1 31 10.9
2011-06-16 06:58:39 51°13.687 2°55.733 22.6 0.5 222 -999
2011-06-16 06:59:39 51°13.746 2°55.705 341.3 6.6 339 9.7
2011-06-16 07:00:39 51°13.871 2°55.611 334.7 8.9 333 -999
2011-06-16 07:01:39 51°14.005 2°55.516 338.9 8.8 336 -999
2011-06-16 07:02:39 51°14.142 2°55.414 336.7 9.3 335 9.6
2011-06-16 07:03:39 51°14.284 2°55.305 333.6 9.6 330 9.3
2011-06-16 07:04:39 51°14.42 2°55.151 324.7 10.5 320 -999
2011-06-16 07:05:38 51°14.553 2°54.964 321.2 11.5 313 10.6
2011-06-16 07:06:37 51°14.715 2°54.778 333.4 12.8 324 11
2011-06-16 07:07:36 51°14.889 2°54.586 332.5 12.9 327 11
2011-06-16 07:08:36 51°15.067 2°54.398 332 12.9 325 11
2011-06-16 07:09:36 51°15.235 2°54.183 328.5 12.9 322 11.2
2011-06-16 07:10:36 51°15.408 2°53.981 329.6 12.9 321 11.2
2011-06-16 07:11:35 51°15.568 2°53.76 326.2 12.9 319 10.7
2011-06-16 07:12:36 51°15.741 2°53.547 332.1 12.9 324 10.9
2011-06-16 07:13:35 51°15.902 2°53.331 327.4 12.8 322 10.9
2011-06-16 07:14:36 51°16.085 2°53.153 338.1 12.6 329 10.8
2011-06-16 07:15:36 51°16.262 2°52.963 336.1 12.7 329 11.1
2011-06-16 07:16:36 51°16.449 2°52.823 343.7 12.5 338 11
2011-06-16 07:17:35 51°16.635 2°52.693 340.6 12.2 336 10.3
2011-06-16 07:18:35 51°16.826 2°52.589 346.5 12.1 340 8.8
2011-06-16 07:19:35 51°17.018 2°52.496 353.9 12 349 8.8
2011-06-16 07:20:35 51°17.211 2°52.412 347.6 12.1 341 9
2011-06-16 07:21:35 51°17.406 2°52.372 8.2 11.8 4 9.5
2011-06-16 07:22:36 51°17.588 2°52.476 32.2 11.5 31 9.4
2011-06-16 07:23:36 51°17.742 2°52.666 42.4 11.7 43 9.5
2011-06-16 07:24:36 51°17.887 2°52.872 43 11.6 45 9.7
2011-06-16 07:25:36 51°18.024 2°53.093 44.2 11.6 44 9.7
2011-06-16 07:26:36 51°18.167 2°53.297 44.4 11.6 45 9.7
2011-06-16 07:27:36 51°18.3 2°53.52 45.7 11.6 43 9.9
2011-06-16 07:28:36 51°18.441 2°53.728 46 11.6 45 10.1
2011-06-16 07:29:36 51°18.565 2°53.963 54.7 11.6 55 10.3
2011-06-16 07:30:36 51°18.673 2°54.215 53.2 11.5 52 10.3
2011-06-16 07:31:36 51°18.791 2°54.457 53.3 11.5 52 10.4
2011-06-16 07:32:36 51°18.911 2°54.695 53.2 11.5 53 10.5
2011-06-16 07:33:36 51°19.015 2°54.949 57.7 11.3 55 10.6
2011-06-16 07:34:35 51°19.12 2°55.192 57 11.2 56 10.6
2011-06-16 07:35:35 51°19.239 2°55.423 51 11.3 49 10.7
2011-06-16 07:36:35 51°19.337 2°55.674 67 11.3 68 10.8
2011-06-16 07:37:36 51°19.41 2°55.955 66.4 11.3 68 10.6
2011-06-16 07:38:36 51°19.484 2°56.231 65.5 11.1 64 10.5
2011-06-16 07:39:36 51°19.568 2°56.495 66.3 11.1 67 10.5
2011-06-16 07:40:35 51°19.639 2°56.764 66.9 11.2 65 10.5
2011-06-16 07:41:36 51°19.727 2°57.03 65.2 11.2 64 10.5
2011-06-16 07:42:36 51°19.803 2°57.302 65.8 11.2 65 10.4
2011-06-16 07:43:36 51°19.892 2°57.562 62.3 11.2 61 10.5
2011-06-16 07:44:36 51°19.978 2°57.824 63.4 11 64 10.5
2011-06-16 07:45:36 51°20.052 2°58.094 68.4 11 69 10.4
2011-06-16 07:46:36 51°20.126 2°58.364 63.6 11.1 61 10.2
2011-06-16 07:47:36 51°20.211 2°58.625 66.1 11.1 66 10.3
2011-06-16 07:48:36 51°20.28 2°58.9 66.4 11.1 65 10.2
2011-06-16 07:49:36 51°20.358 2°59.169 66.4 11.2 66 10.1
2011-06-16 07:50:36 51°20.44 2°59.438 66.9 11.3 67 10.1
2011-06-16 07:51:36 51°20.495 2°59.727 73.8 11.4 76 9.9
2011-06-16 07:52:35 51°20.559 3°0.006 67.6 11.3 69 9.9
2011-06-16 07:53:36 51°20.618 3°0.3 69.5 11.3 69 9.9
2011-06-16 07:54:36 51°20.686 3°0.581 71.7 11.4 75 10.2
2011-06-16 07:55:35 51°20.741 3°0.866 68.7 11.5 69 9.9
2011-06-16 07:56:35 51°20.808 3°1.151 72.1 11.5 74 9.9
2011-06-16 07:57:36 51°20.873 3°1.44 65.2 11.3 67 9.8
2011-06-16 07:58:36 51°20.946 3°1.717 70 11.4 71 9.7
2011-06-16 07:59:36 51°21.009 3°2.002 65.8 11.4 66 9.7
2011-06-16 08:00:36 51°21.075 3°2.287 71.4 11.4 71 9.9
2011-06-16 08:01:36 51°21.136 3°2.575 70.4 11.5 74 10.2
2011-06-16 08:02:36 51°21.182 3°2.87 74.9 11.5 77 10.3
2011-06-16 08:03:36 51°21.238 3°3.161 68.9 11.5 71 10.4
2011-06-16 08:04:36 51°21.294 3°3.457 69.8 11.6 70 10.5
2011-06-16 08:05:36 51°21.356 3°3.75 73 11.7 74 10.7
2011-06-16 08:06:36 51°21.411 3°4.045 74.2 11.5 77 10.4
2011-06-16 08:07:36 51°21.455 3°4.343 72.8 11.4 73 10.6
2011-06-16 08:08:36 51°21.508 3°4.631 74.1 11.3 77 10.6
2011-06-16 08:09:36 51°21.545 3°4.928 75.4 11.4 77 10.4
2011-06-16 08:10:36 51°21.592 3°5.218 71.1 11.3 72 10.3
2011-06-16 08:11:36 51°21.644 3°5.506 75.8 11.4 79 10.4
2011-06-16 08:12:36 51°21.68 3°5.803 74.6 11.4 74 10.4
2011-06-16 08:13:36 51°21.721 3°6.101 78.9 11.5 79 10.5
2011-06-16 08:14:36 51°21.764 3°6.398 78.5 11.5 80 10.7
2011-06-16 08:15:36 51°21.801 3°6.7 78.1 11.7 80 10.8
2011-06-16 08:16:36 51°21.822 3°7.009 83.6 11.7 85 11
2011-06-16 08:17:36 51°21.847 3°7.318 83.6 11.8 86 11
2011-06-16 08:18:36 51°21.828 3°7.63 103.1 11.8 105 10.8
2011-06-16 08:19:36 51°21.831 3°7.859 74.1 5.9 75 10.8
2011-06-16 08:20:36 51°21.855 3°7.957 66.2 3 70 11
2011-06-16 08:21:36 51°21.861 3°8.019 82.1 2 94 11.1
2011-06-16 08:22:36 51°21.843 3°8.102 112.4 5.2 125 11.1
2011-06-16 08:23:36 51°21.761 3°8.222 135.9 6.2 149 10.8
2011-06-16 08:24:36 51°21.68 3°8.269 156.5 4.8 170 10.5
2011-06-16 08:25:36 51°21.604 3°8.278 167 4.4 179 10
2011-06-16 08:26:36 51°21.532 3°8.273 172.6 4.3 185 9.7
2011-06-16 08:27:36 51°21.463 3°8.243 193.3 4.3 203 9.3
2011-06-16 08:28:36 51°21.402 3°8.182 215.5 4.4 221 9
2011-06-16 08:29:36 51°21.356 3°8.092 240.9 4.4 240 8.7
2011-06-16 08:30:36 51°21.331 3°7.982 260.2 4.4 254 8.8
2011-06-16 08:31:36 51°21.314 3°7.87 262 4.3 256 8.8
2011-06-16 08:32:36 51°21.298 3°7.757 263.1 4.4 258 8.7
2011-06-16 08:33:36 51°21.282 3°7.645 261.9 4.4 256 8.7
2011-06-16 08:34:36 51°21.264 3°7.535 261 4.2 256 8.7
2011-06-16 08:35:36 51°21.248 3°7.428 261.8 4.1 256 8.7
2011-06-16 08:36:36 51°21.23 3°7.322 259.4 4.1 254 8.6
2011-06-16 08:37:36 51°21.21 3°7.216 259.1 4.1 255 8.7
2011-06-16 08:38:36 51°21.191 3°7.11 258.3 4.2 253 8.6
2011-06-16 08:39:36 51°21.171 3°7.004 258.7 4.2 254 8.6
2011-06-16 08:40:36 51°21.152 3°6.897 260.7 4.2 254 8.6
2011-06-16 08:41:36 51°21.134 3°6.79 261.9 4.2 254 8.6
2011-06-16 08:42:36 51°21.117 3°6.681 262.2 4.2 255 8.5
2011-06-16 08:43:36 51°21.1 3°6.572 262.4 4.2 257 8.5
2011-06-16 08:44:36 51°21.08 3°6.464 259.9 4.2 253 8.7
2011-06-16 08:45:36 51°21.057 3°6.356 257.4 4.3 251 8.7
2011-06-16 08:46:36 51°21.031 3°6.249 252.5 4.3 247 8.7
2011-06-16 08:47:36 51°21.002 3°6.144 248.9 4.3 244 8.6
2011-06-16 08:48:36 51°20.968 3°6.041 246.9 4.4 243 8.6
2011-06-16 08:49:36 51°20.934 3°5.935 249 4.5 242 8.4
2011-06-16 08:50:36 51°20.901 3°5.829 250.3 4.4 244 8.3
2011-06-16 08:51:36 51°20.871 3°5.724 251 4.4 244 8.4
2011-06-16 08:52:36 51°20.84 3°5.617 251.9 4.4 245 8.3
2011-06-16 08:53:36 51°20.812 3°5.51 254.8 4.3 247 8.3
2011-06-16 08:54:36 51°20.785 3°5.405 253.5 4.2 248 8.3
2011-06-16 08:55:36 51°20.758 3°5.303 252.8 4.2 247 8.3
2011-06-16 08:56:36 51°20.741 3°5.199 272.6 3.9 265 8.3
2011-06-16 08:57:36 51°20.745 3°5.099 290 3.7 280 8.3
2011-06-16 08:58:36 51°20.763 3°5.008 308.9 3.5 294 8.4
2011-06-16 08:59:36 51°20.793 3°4.93 326.2 3.3 310 8.8
2011-06-16 09:00:36 51°20.832 3°4.889 0.6 2.2 342 9
2011-06-16 09:01:36 51°20.868 3°4.896 36.4 3.2 42 9
2011-06-16 09:02:36 51°20.88 3°4.955 75.8 1.8 89 9.1
2011-06-16 09:03:36 51°20.875 3°4.992 87.5 1.2 115 9.1
2011-06-16 09:04:36 51°20.865 3°5.016 97.1 1 137 9
2011-06-16 09:05:36 51°20.852 3°5.029 108.4 0.9 155 8.9
2011-06-16 09:06:36 51°20.829 3°5.066 114.1 2.7 131 8.8
2011-06-16 09:07:36 51°20.802 3°5.159 96.6 5 105 8.6
2011-06-16 09:08:36 51°20.788 3°5.307 89.3 6 94 8.4
2011-06-16 09:09:36 51°20.803 3°5.465 71.7 6.1 77 8.5
2011-06-16 09:10:36 51°20.83 3°5.624 71.9 6.2 74 8.3
2011-06-16 09:11:36 51°20.853 3°5.783 74.8 6.1 80 8.3
2011-06-16 09:12:36 51°20.869 3°5.944 76.9 6.1 82 8.4
2011-06-16 09:13:36 51°20.884 3°6.103 75.8 6.1 79 8.2
2011-06-16 09:14:36 51°20.904 3°6.26 72.5 6 76 8.1
2011-06-16 09:15:36 51°20.925 3°6.414 73.9 5.8 75 8.2
2011-06-16 09:16:36 51°20.943 3°6.563 75.1 5.7 80 6
2011-06-16 09:17:36 51°20.956 3°6.712 78.2 5.7 82 8.2
2011-06-16 09:18:36 51°20.969 3°6.864 76.9 5.8 82 8.1
2011-06-16 09:19:36 51°20.99 3°7.013 72 5.8 75 8.2
2011-06-16 09:20:36 51°21.011 3°7.162 75 5.8 79 8.2
2011-06-16 09:21:36 51°21.027 3°7.317 77.4 6 83 8.1
2011-06-16 09:22:36 51°21.043 3°7.473 76.2 5.9 77 6
2011-06-16 09:23:36 51°21.065 3°7.627 72.4 5.9 75 8
2011-06-16 09:24:36 51°21.085 3°7.78 79.2 6 83 8.2
2011-06-16 09:25:36 51°21.097 3°7.938 78.5 6.1 83 8.5
2011-06-16 09:26:36 51°21.113 3°8.096 76.3 6 80 8.7
2011-06-16 09:27:36 51°21.135 3°8.251 71.9 6 75 8.6
2011-06-16 09:28:36 51°21.159 3°8.407 75.4 6 77 8.8
2011-06-16 09:29:36 51°21.175 3°8.568 77.9 6.1 81 9.1
2011-06-16 09:30:36 51°21.192 3°8.728 76.3 6.1 80 9.5
2011-06-16 09:31:36 51°21.216 3°8.885 72 6.1 75 9.7
2011-06-16 09:32:36 51°21.241 3°9.043 74.8 6.1 78 9.9
2011-06-16 09:33:36 51°21.267 3°9.199 66.1 6 66 10
2011-06-16 09:34:36 51°21.325 3°9.32 36.3 5.6 32 10.1
2011-06-16 09:35:36 51°21.413 3°9.336 349.2 5.3 340 10.3
2011-06-16 09:36:36 51°21.476 3°9.236 306 5.7 300 10.5
2011-06-16 09:37:36 51°21.499 3°9.087 277.8 5.9 272 10.2
2011-06-16 09:38:36 51°21.477 3°8.93 253.8 6.2 254 10
2011-06-16 09:39:36 51°21.461 3°8.764 266.8 6.4 264 9.9
2011-06-16 09:40:36 51°21.45 3°8.592 266.7 6.5 263 9.9
2011-06-16 09:41:36 51°21.438 3°8.423 267.5 6 264 9.7
2011-06-16 09:42:36 51°21.431 3°8.274 269.7 5.4 266 9.7
2011-06-16 09:43:36 51°21.427 3°8.135 270.6 5.1 268 9.8
2011-06-16 09:44:36 51°21.423 3°8 269.6 5 267 9.9
2011-06-16 09:45:36 51°21.416 3°7.866 267.9 5.1 264 9.8
2011-06-16 09:46:36 51°21.408 3°7.733 268.9 5 265 10.1
2011-06-16 09:47:36 51°21.402 3°7.599 270.4 5.1 267 10.1
2011-06-16 09:48:36 51°21.399 3°7.464 272.1 5.1 268 10.1
2011-06-16 09:49:36 51°21.389 3°7.329 261.4 5.1 257 10.1
2011-06-16 09:50:36 51°21.362 3°7.201 251.4 5.1 248 10
2011-06-16 09:51:36 51°21.329 3°7.073 251.2 5.2 248 9.9
2011-06-16 09:52:36 51°21.297 3°6.942 252.7 5.3 248 9.9
2011-06-16 09:53:36 51°21.266 3°6.809 255.5 5.3 251 9.7
2011-06-16 09:54:36 51°21.241 3°6.673 258.9 5.3 255 9.8
2011-06-16 09:55:36 51°21.216 3°6.537 257.5 5.3 253 9.8
2011-06-16 09:56:36 51°21.189 3°6.405 254.6 5.3 250 10
2011-06-16 09:57:36 51°21.157 3°6.273 252 5.3 248 9.8
2011-06-16 09:58:36 51°21.125 3°6.142 253.8 5.3 249 9.8
2011-06-16 09:59:36 51°21.083 3°6.033 220.9 4.4 215 9.7
2011-06-16 10:00:36 51°21.022 3°6.035 146 3.5 145 9.4
2011-06-16 10:01:36 51°21.004 3°6.118 79.3 3.7 82 9.3
2011-06-16 10:02:36 51°21.025 3°6.23 70.5 4.9 74 9.3
2011-06-16 10:03:36 51°21.045 3°6.364 75.4 5.3 79 9.2
2011-06-16 10:04:36 51°21.06 3°6.506 76.5 5.4 81 9.2
2011-06-16 10:05:36 51°21.077 3°6.65 74.7 5.5 79 9.1
2011-06-16 10:06:36 51°21.1 3°6.792 70.7 5.5 74 9.2
2011-06-16 10:07:36 51°21.126 3°6.934 71.1 5.6 75 9.2
2011-06-16 10:08:36 51°21.15 3°7.077 71.9 5.6 74 9.1
2011-06-16 10:09:36 51°21.17 3°7.223 76.1 5.6 80 9.2
2011-06-16 10:10:36 51°21.191 3°7.368 71 5.6 74 9.3
2011-06-16 10:11:36 51°21.223 3°7.507 65 5.6 68 9.3
2011-06-16 10:12:36 51°21.305 3°7.63 25.5 8.5 21 9.8
2011-06-16 10:13:36 51°21.48 3°7.681 10.3 12 9 10.5
2011-06-16 10:14:36 51°21.683 3°7.738 11 12.6 8 11.1
2011-06-16 10:15:36 51°21.89 3°7.754 1 12.6 -999 11.9
2011-06-16 10:16:36 51°22.098 3°7.753 2.2 12.4 359 12.6
2011-06-16 10:17:36 51°22.296 3°7.755 5.3 11.1 1 13.2
2011-06-16 10:18:36 51°22.472 3°7.711 346 10.7 342 13.6
2011-06-16 10:19:36 51°22.639 3°7.613 340.6 10.7 340 13.3
2011-06-16 10:20:36 51°22.798 3°7.523 342.3 9.5 342 13.2
2011-06-16 10:21:36 51°22.947 3°7.447 342.7 9.3 343 12.8
2011-06-16 10:22:36 51°23.098 3°7.376 344.2 9.6 345 12.3
2011-06-16 10:23:36 51°23.256 3°7.329 350.2 9.6 352 12.9
2011-06-16 10:24:36 51°23.417 3°7.323 0.1 9.8 3 13.7
2011-06-16 10:25:36 51°23.59 3°7.372 8.8 12 11 16
2011-06-16 10:26:36 51°23.795 3°7.424 6.3 12.5 9 19.8
2011-06-16 10:27:36 51°24 3°7.475 5.4 12.5 7 19.9
2011-06-16 10:28:36 51°24.206 3°7.507 3.8 12.4 5 16.9
2011-06-16 10:29:36 51°24.408 3°7.546 7.7 12.1 8 12.6
2011-06-16 10:30:36 51°24.565 3°7.577 5.1 6.7 11 11.9
2011-06-16 10:31:36 51°24.632 3°7.666 53.8 5.3 69 11.9
2011-06-16 10:32:36 51°24.634 3°7.825 86.2 6.5 94 11.7
2011-06-16 10:33:36 51°24.625 3°8.005 87.9 6.9 93 11.6
2011-06-16 10:34:36 51°24.616 3°8.181 88.3 6.3 95 11.5
2011-06-16 10:35:36 51°24.606 3°8.346 89 6.1 96 11.4
2011-06-16 10:36:36 51°24.597 3°8.507 88.4 6 95 11.2
2011-06-16 10:37:36 51°24.585 3°8.669 92.3 6.2 99 11.3
2011-06-16 10:38:36 51°24.569 3°8.83 93.1 6.1 99 11.5
2011-06-16 10:39:36 51°24.557 3°8.991 90.8 6 95 11.6
2011-06-16 10:40:36 51°24.566 3°9.146 71.5 5.8 77 11.6
2011-06-16 10:41:36 51°24.589 3°9.297 69 5.9 77 11.4
2011-06-16 10:42:36 51°24.605 3°9.454 77.9 6.1 84 11.2
2011-06-16 10:43:36 51°24.613 3°9.615 80.9 6.1 86 11.4
2011-06-16 10:44:36 51°24.62 3°9.777 82.1 6.1 85 11.6
2011-06-16 10:45:36 51°24.626 3°9.94 82.3 6.1 86 11.7
2011-06-16 10:46:36 51°24.635 3°10.103 79.9 6.2 85 11.7
2011-06-16 10:47:36 51°24.654 3°10.26 63.1 5.7 67 11.8
2011-06-16 10:48:36 51°24.708 3°10.349 8.5 4.1 21 11.5
2011-06-16 10:49:36 51°24.769 3°10.354 334.9 3.3 344 11.3
2011-06-16 10:50:36 51°24.805 3°10.301 297.9 3 298 10.8
2011-06-16 10:51:36 51°24.818 3°10.221 280.6 3.2 275 10.7
2011-06-16 10:52:36 51°24.818 3°10.13 276.2 3.6 270 10.6
2011-06-16 10:53:36 51°24.82 3°10.033 278 3.7 273 10.4
2011-06-16 10:54:36 51°24.82 3°9.935 275.9 3.7 269 10.4
2011-06-16 10:55:36 51°24.817 3°9.834 273.5 3.9 267 10.5
2011-06-16 10:56:36 51°24.813 3°9.735 273 3.8 264 10.4
2011-06-16 10:57:36 51°24.808 3°9.634 274.1 3.8 267 10.4
2011-06-16 10:58:36 51°24.809 3°9.537 278.7 3.6 274 10.3
2011-06-16 10:59:36 51°24.81 3°9.441 277.4 3.6 271 10.4
2011-06-16 11:00:36 51°24.808 3°9.345 274.9 3.6 267 10.3
2011-06-16 11:01:36 51°24.802 3°9.249 273.4 3.6 265 10.6
2011-06-16 11:02:36 51°24.801 3°9.158 275.7 3.4 268 10.5
2011-06-16 11:03:36 51°24.8 3°9.068 277 3.3 269 10.6
2011-06-16 11:04:36 51°24.798 3°8.976 275 3.5 267 10.6
2011-06-16 11:05:36 51°24.792 3°8.883 272.3 3.5 263 10.7
2011-06-16 11:06:37 51°24.789 3°8.79 277.3 3.4 273 10.9
2011-06-16 11:07:36 51°24.789 3°8.702 276 3.4 269 11
2011-06-16 11:08:36 51°24.785 3°8.615 269.4 3.3 260 11.1
2011-06-16 11:09:36 51°24.767 3°8.518 261.3 4.3 251 11.2
2011-06-16 11:10:36 51°24.743 3°8.402 262.2 4.7 253 11.6
2011-06-16 11:11:36 51°24.723 3°8.282 264 4.7 257 11.8
2011-06-16 11:12:36 51°24.705 3°8.161 264.8 4.7 258 12
2011-06-16 11:13:36 51°24.691 3°8.04 267.9 4.6 262 12.2
2011-06-16 11:14:36 51°24.678 3°7.92 265.5 4.6 258 12.5
2011-06-16 11:15:36 51°24.659 3°7.802 263.5 4.5 255 12.8
2011-06-16 11:16:36 51°24.64 3°7.685 264.8 4.5 258 12.9
2011-06-16 11:17:36 51°24.628 3°7.567 267.8 4.4 261 13.2
2011-06-16 11:18:36 51°24.616 3°7.451 266.5 4.4 260 13.2
2011-06-16 11:19:36 51°24.601 3°7.334 263.9 4.5 257 13.3
2011-06-16 11:20:36 51°24.584 3°7.218 263 4.5 256 13.7
2011-06-16 11:21:36 51°24.566 3°7.101 264.2 4.4 258 13.9
2011-06-16 11:22:36 51°24.553 3°6.987 267.6 4.3 262 13.8
2011-06-16 11:23:36 51°24.545 3°6.873 267.2 4.3 263 14.1
2011-06-16 11:24:36 51°24.531 3°6.759 263 4.4 257 14.3
2011-06-16 11:25:36 51°24.515 3°6.646 263.1 4.4 258 14.7
2011-06-16 11:26:36 51°24.504 3°6.531 266.3 4.3 263 14.6
2011-06-16 11:27:36 51°24.497 3°6.418 267.7 4.3 264 14.9
2011-06-16 11:28:36 51°24.489 3°6.305 265.2 4.2 262 15.3
2011-06-16 11:29:36 51°24.477 3°6.192 266.4 4.3 265 15.7
2011-06-16 11:30:36 51°24.49 3°6.08 283.8 4.4 288 15.9
2011-06-16 11:31:36 51°24.52 3°5.973 298.6 4.6 310 14.9
2011-06-16 11:32:36 51°24.594 3°5.919 335.1 5.5 354 15
2011-06-16 11:33:36 51°24.688 3°5.971 26.9 6.7 46 14.9
2011-06-16 11:34:36 51°24.722 3°6.149 81.2 7.6 84 14.9
2011-06-16 11:35:36 51°24.728 3°6.362 87.8 8.2 89 14.8
2011-06-16 11:36:36 51°24.732 3°6.582 88.1 8.3 88 14.5
2011-06-16 11:37:36 51°24.737 3°6.805 87.9 8.4 87 14
2011-06-16 11:38:36 51°24.799 3°7.011 31.1 9 36 13.6
2011-06-16 11:39:36 51°24.945 3°7.001 339 10.6 347 12.8
2011-06-16 11:40:36 51°25.137 3°6.943 347.4 12.4 355 12.4
2011-06-16 11:41:36 51°25.346 3°6.939 354.3 12.8 2 12.7
2011-06-16 11:42:36 51°25.558 3°6.94 353 12.6 359 12.6
2011-06-16 11:43:36 51°25.769 3°6.935 352.3 12.8 359 12.6
2011-06-16 11:44:36 51°25.981 3°6.926 349.9 12.7 356 12.8
2011-06-16 11:45:36 51°26.193 3°6.92 354.9 12.8 -999 13.3
2011-06-16 11:46:36 51°26.407 3°6.922 354.4 12.9 -999 13.2
2011-06-16 11:47:36 51°26.618 3°6.91 350.7 12.8 357 13.5
2011-06-16 11:48:36 51°26.831 3°6.903 353.5 12.8 359 14.2
2011-06-16 11:49:36 51°27.043 3°6.9 352.3 12 -999 14.8
2011-06-16 11:50:36 51°27.191 3°6.906 350.9 7 7 15.6
2011-06-16 11:51:36 51°27.285 3°6.977 23.3 6.1 36 15.6
2011-06-16 11:52:36 51°27.363 3°7.072 20.1 5.8 35 15.7
2011-06-16 11:53:36 51°27.439 3°7.157 17 5.5 34 15.8
2011-06-16 11:54:36 51°27.515 3°7.238 17.5 5.5 34 15.9
2011-06-16 11:55:36 51°27.589 3°7.324 25.6 5.7 40 16
2011-06-16 11:56:36 51°27.658 3°7.432 36.2 5.9 47 16
2011-06-16 11:57:36 51°27.724 3°7.55 37.8 5.9 49 16
2011-06-16 11:58:36 51°27.789 3°7.666 35.1 5.8 47 15.8
2011-06-16 11:59:36 51°27.849 3°7.782 41.5 5.6 52 15.6
2011-06-16 12:00:36 51°27.902 3°7.905 48.4 5.7 57 15.2
2011-06-16 12:01:36 51°27.951 3°8.033 49.2 5.7 59 14.8
2011-06-16 12:02:36 51°28.002 3°8.16 47.6 5.6 57 15.2
2011-06-16 12:03:36 51°28.054 3°8.284 48.2 5.6 58 16
2011-06-16 12:04:36 51°28.085 3°8.424 84.5 5.4 83 16.4
2011-06-16 12:05:36 51°28.075 3°8.558 122.7 4.7 109 16.5
2011-06-16 12:06:36 51°28.041 3°8.658 154.7 3.8 129 17.1
2011-06-16 12:07:36 51°27.996 3°8.711 193.5 3 166 16.8
2011-06-16 12:08:36 51°27.961 3°8.68 248.9 3.2 246 16.6
2011-06-16 12:09:36 51°27.931 3°8.569 242.8 5.3 239 16.5
2011-06-16 12:10:36 51°27.872 3°8.454 233.2 5.6 228 16.3
2011-06-16 12:11:36 51°27.814 3°8.35 234.4 4.9 229 16.2
2011-06-16 12:12:36 51°27.764 3°8.259 236.8 4.4 232 16
2011-06-16 12:13:36 51°27.722 3°8.167 240.5 4.2 238 15.5
2011-06-16 12:14:36 51°27.683 3°8.076 239.7 4.2 233 15.2
2011-06-16 12:15:36 51°27.639 3°7.989 236.7 4.2 229 14.6
2011-06-16 12:16:36 51°27.592 3°7.906 236 4.2 228 14.2
2011-06-16 12:17:36 51°27.549 3°7.821 239 4.1 236 14.2
2011-06-16 12:18:36 51°27.511 3°7.732 241 4 235 14.4
2011-06-16 12:19:36 51°27.473 3°7.644 240.3 4.1 237 14.9
2011-06-16 12:20:36 51°27.43 3°7.559 235.4 4.1 227 15.1
2011-06-16 12:21:36 51°27.385 3°7.477 236.7 4.2 229 15.3
2011-06-16 12:22:36 51°27.344 3°7.39 239.5 4 233 15.2
2011-06-16 12:23:36 51°27.305 3°7.303 239 4 236 15.3
2011-06-16 12:24:36 51°27.265 3°7.215 237.8 4.1 233 15.5
2011-06-16 12:25:36 51°27.221 3°7.131 235.6 4.1 227 15.6
2011-06-16 12:26:36 51°27.179 3°7.045 239.3 4.1 234 15.5
2011-06-16 12:27:36 51°27.143 3°6.956 241.2 4 237 15.6
2011-06-16 12:28:36 51°27.105 3°6.866 238.2 4.1 232 15.7
2011-06-16 12:29:36 51°27.062 3°6.782 234.6 4.1 228 15.5
2011-06-16 12:30:36 51°27.021 3°6.696 238.5 4.1 233 15.6
2011-06-16 12:31:36 51°26.984 3°6.602 241.1 4.1 239 15.5
2011-06-16 12:32:36 51°26.946 3°6.508 238.8 4.2 237 15.4
2011-06-16 12:33:36 51°26.907 3°6.417 237.8 4.1 236 15.3
2011-06-16 12:34:36 51°26.867 3°6.328 236 4 232 15.1
2011-06-16 12:35:36 51°26.828 3°6.241 238.2 4 237 15.3
2011-06-16 12:36:36 51°26.814 3°6.142 273.4 4.1 294 15
2011-06-16 12:37:36 51°26.887 3°6.089 343.4 5.9 1 14.9
2011-06-16 12:38:36 51°26.979 3°6.169 44.6 6.6 47 15.4
2011-06-16 12:39:36 51°27.045 3°6.311 54.5 6.6 54 15.7
2011-06-16 12:40:36 51°27.112 3°6.444 48 6.3 49 16
2011-06-16 12:41:36 51°27.182 3°6.57 48.8 6.3 50 16.1
2011-06-16 12:42:36 51°27.248 3°6.699 50.8 6.3 51 16.1
2011-06-16 12:43:36 51°27.313 3°6.828 50.3 6.3 51 16.2
2011-06-16 12:44:36 51°27.377 3°6.96 53.3 6.2 54 16.2
2011-06-16 12:45:36 51°27.439 3°7.094 55.2 6.2 54 16.2
2011-06-16 12:46:36 51°27.5 3°7.228 53.3 6.2 55 16.1
2011-06-16 12:47:36 51°27.561 3°7.362 52.4 6.2 53 16.1
2011-06-16 12:48:36 51°27.624 3°7.49 50.9 6.2 52 16.1
2011-06-16 12:49:36 51°27.69 3°7.618 50 6.2 50 15.8
2011-06-16 12:50:36 51°27.754 3°7.746 51.7 6.2 51 15.6
2011-06-16 12:51:36 51°27.815 3°7.879 55 6.2 54 14.9
2011-06-16 12:52:36 51°27.876 3°8.014 54.4 6.2 54 14.7
2011-06-16 12:53:36 51°27.937 3°8.147 52.9 6.2 51 15.3
2011-06-16 12:54:36 51°28 3°8.277 51.8 6.2 51 16.1
2011-06-16 12:55:36 51°28.065 3°8.405 49.9 6.2 51 16.6
2011-06-16 12:56:36 51°28.121 3°8.535 73.3 5.5 70 16.6
2011-06-16 12:57:36 51°28.121 3°8.656 132.3 3.8 108 16.7
2011-06-16 12:58:36 51°28.086 3°8.708 193 2.5 172 17.1
2011-06-16 12:59:36 51°28.059 3°8.666 243.7 3 249 17
2011-06-16 13:00:36 51°28.022 3°8.589 225.2 4.1 220 16.7
2011-06-16 13:01:36 51°27.964 3°8.524 220.7 4.4 216 16.4
2011-06-16 13:02:36 51°27.906 3°8.45 223 4.5 219 16.4
2011-06-16 13:03:36 51°27.849 3°8.373 224.4 4.5 220 16.4
2011-06-16 13:04:36 51°27.798 3°8.267 245.4 6.2 250 16
2011-06-16 13:05:36 51°27.839 3°8.079 307.6 9.1 319 14.9
2011-06-16 13:06:36 51°27.966 3°7.878 305.8 12.1 312 15.5
2011-06-16 13:07:36 51°28.1 3°7.626 304.6 12.5 309 16.8
2011-06-16 13:08:36 51°28.218 3°7.356 298.3 12.4 303 18
2011-06-16 13:09:36 51°28.338 3°7.087 300.5 12.4 306 18
2011-06-16 13:10:36 51°28.461 3°6.822 300.5 12.3 308 17.9
2011-06-16 13:11:36 51°28.593 3°6.572 302.8 12.2 309 18.8
2011-06-16 13:12:36 51°28.752 3°6.359 317.2 12.7 325 18.9
2011-06-16 13:13:36 51°28.922 3°6.16 315.5 12.6 323 19.8
2011-06-16 13:14:36 51°29.092 3°5.959 315.6 12.7 323 21.6
2011-06-16 13:15:36 51°29.259 3°5.754 314.2 12.6 322 23.7
2011-06-16 13:16:36 51°29.42 3°5.545 312.2 12.5 321 25.3
2011-06-16 13:17:36 51°29.579 3°5.333 308.6 12.2 317 26.2
2011-06-16 13:18:36 51°29.701 3°5.083 294 11.7 302 26.1
2011-06-16 13:19:36 51°29.796 3°4.81 290.5 11.8 300 25.8
2011-06-16 13:20:36 51°29.897 3°4.539 294.2 12 303 25.4
2011-06-16 13:21:36 51°29.995 3°4.265 285.4 11.6 293 25.4
2011-06-16 13:22:36 51°30.066 3°3.977 282.6 11.6 291 25.7
2011-06-16 13:23:36 51°30.142 3°3.688 286 11.9 293 27.6
2011-06-16 13:24:36 51°30.17 3°3.391 259.9 11.2 265 28.9
2011-06-16 13:25:36 51°30.139 3°3.097 254.6 11.2 260 28.8
2011-06-16 13:26:36 51°30.108 3°2.805 255.2 11.1 261 28.5
2011-06-16 13:27:36 51°30.099 3°2.511 264.1 11 270 28.2
2011-06-16 13:28:36 51°30.094 3°2.221 262.1 10.8 268 28.4
2011-06-16 13:29:36 51°30.085 3°1.934 260.8 10.8 266 30.2
2011-06-16 13:30:36 51°30.069 3°1.651 259.2 10.7 264 30.9
2011-06-16 13:31:36 51°30.062 3°1.365 264.1 10.8 271 31.2
2011-06-16 13:32:36 51°30.058 3°1.081 261.1 10.6 266 30.9
2011-06-16 13:33:36 51°30.042 3°0.801 259.9 10.6 264 30.5
2011-06-16 13:34:36 51°30.033 3°0.52 263.9 10.7 270 29
2011-06-16 13:35:36 51°30.027 3°0.237 260.6 10.6 266 29.8
2011-06-16 13:36:36 51°30.014 2°59.957 259.3 10.5 264 29.7
2011-06-16 13:37:36 51°29.993 2°59.81 233.2 3.4 231 28.3
2011-06-16 13:38:36 51°29.959 2°59.767 225.9 2.2 220 29.5
2011-06-16 13:39:36 51°29.934 2°59.72 236 2.9 237 28.9
2011-06-16 13:40:36 51°29.91 2°59.643 239.4 3.4 245 29.5
2011-06-16 13:41:36 51°29.878 2°59.567 231.7 3.5 231 29.4
2011-06-16 13:42:36 51°29.837 2°59.499 227 3.6 221 29.1
2011-06-16 13:43:36 51°29.793 2°59.434 229.1 3.5 224 28.9
2011-06-16 13:44:36 51°29.753 2°59.364 232.2 3.6 232 28.1
2011-06-16 13:45:36 51°29.716 2°59.289 233 3.6 232 29.6
2011-06-16 13:46:36 51°29.676 2°59.22 228.2 3.5 221 29.6
2011-06-16 13:47:36 51°29.631 2°59.156 229.1 3.6 224 29.5
2011-06-16 13:48:36 51°29.59 2°59.09 230.4 3.5 226 28.5
2011-06-16 13:49:36 51°29.553 2°59.02 232.8 3.5 233 29.6
2011-06-16 13:50:36 51°29.516 2°58.949 231.6 3.4 228 29.9
2011-06-16 13:51:36 51°29.476 2°58.884 228 3.4 225 29.6
2011-06-16 13:52:36 51°29.434 2°58.819 227.8 3.6 223 29.4
2011-06-16 13:53:36 51°29.392 2°58.753 231 3.5 230 29.6
2011-06-16 13:54:36 51°29.354 2°58.677 233.2 3.6 235 29.5
2011-06-16 13:55:36 51°29.316 2°58.603 230.3 3.6 227 29.4
2011-06-16 13:56:36 51°29.272 2°58.533 228 3.8 225 30
2011-06-16 13:57:36 51°29.228 2°58.464 228.3 3.7 229 29.7
2011-06-16 13:58:36 51°29.188 2°58.392 230.9 3.6 232 29.8
2011-06-16 13:59:36 51°29.148 2°58.315 231.2 3.8 229 29.7
2011-06-16 14:00:36 51°29.108 2°58.238 233.1 3.7 232 30
2011-06-16 14:01:36 51°29.068 2°58.164 229.7 3.6 227 30.1
2011-06-16 14:02:36 51°29.024 2°58.095 227.5 3.6 222 29.8
2011-06-16 14:03:36 51°28.984 2°58.023 231.3 3.6 231 29.9
2011-06-16 14:04:36 51°28.944 2°57.948 231 3.7 229 30.3
2011-06-16 14:05:36 51°28.905 2°57.872 231.9 3.7 232 30.3
2011-06-16 14:06:36 51°28.887 2°57.781 264.1 4 284 30.1
2011-06-16 14:07:36 51°28.953 2°57.709 329 6.2 351 29.7
2011-06-16 14:08:36 51°29.064 2°57.768 32.2 7.8 37 29.1
2011-06-16 14:09:36 51°29.157 2°57.914 47.6 7.8 46 27.2
2011-06-16 14:10:36 51°29.245 2°58.066 49.3 7.8 48 28.5
2011-06-16 14:11:36 51°29.332 2°58.221 49.7 7.8 48 28.7
2011-06-16 14:12:36 51°29.416 2°58.377 52 7.7 50 28.8
2011-06-16 14:13:36 51°29.497 2°58.537 53.6 7.8 51 28.6
2011-06-16 14:14:36 51°29.579 2°58.696 52.5 7.7 50 28.1
2011-06-16 14:15:36 51°29.656 2°58.834 46.8 6.5 47 27.2
2011-06-16 14:16:36 51°29.727 2°58.953 45.3 6 46 29.1
2011-06-16 14:17:36 51°29.793 2°59.067 47.2 5.7 49 26.6
2011-06-16 14:18:36 51°29.856 2°59.176 47.6 5.5 48 27.8
2011-06-16 14:19:36 51°29.915 2°59.286 49.2 5.5 49 28.8
2011-06-16 14:20:36 51°29.974 2°59.395 52.1 5.4 50 28.5
2011-06-16 14:21:36 51°30.031 2°59.508 53.8 5.5 51 28.7
2011-06-16 14:22:36 51°30.087 2°59.621 53.8 5.4 52 28.6
2011-06-16 14:23:36 51°30.144 2°59.733 51.3 5.4 51 28.7
2011-06-16 14:24:36 51°30.203 2°59.842 47 5.5 47 27.7
2011-06-16 14:25:36 51°30.265 2°59.949 45.1 5.5 47 28.9
2011-06-16 14:26:36 51°30.327 3°0.057 46.5 5.5 48 29
2011-06-16 14:27:36 51°30.388 3°0.167 47.3 5.6 49 29
2011-06-16 14:28:36 51°30.447 3°0.282 51.4 5.6 51 29.2
2011-06-16 14:29:36 51°30.505 3°0.399 59.9 5.6 57 29.4
2011-06-16 14:30:36 51°30.532 3°0.526 106.6 4.8 82 29.1
2011-06-16 14:31:36 51°30.522 3°0.628 160.1 3.3 110 29.2
2011-06-16 14:32:36 51°30.497 3°0.678 201.9 1.9 154 28.9
2011-06-16 14:33:36 51°30.464 3°0.67 223.7 2.5 213 29.7
2011-06-16 14:34:36 51°30.425 3°0.61 229.9 3.6 226 29.6
2011-06-16 14:35:36 51°30.381 3°0.536 229.2 4 226 29.6
2011-06-16 14:36:36 51°30.336 3°0.45 232.7 4.3 235 28.7
2011-06-16 14:37:36 51°30.294 3°0.357 233.5 4.2 234 29.5
2011-06-16 14:38:36 51°30.252 3°0.263 231.8 4.4 233 29.3
2011-06-16 14:39:36 51°30.203 3°0.179 226.9 4.2 224 28.8
2011-06-16 14:40:36 51°30.156 3°0.095 230.6 4.3 232 28.6
2011-06-16 14:41:36 51°30.109 3°0.008 230.9 4.4 228 29
2011-06-16 14:42:36 51°30.063 2°59.921 232.4 4.2 232 28.6
2011-06-16 14:43:36 51°30.022 2°59.832 231.6 4.2 231 28.8
2011-06-16 14:44:36 51°29.976 2°59.738 231 5.5 230 28.6
2011-06-16 14:45:36 51°29.879 2°59.547 232.6 10.7 231 28.7
2011-06-16 14:46:36 51°29.719 2°59.455 192.3 11 186 27.9
2011-06-16 14:47:36 51°29.535 2°59.433 193.9 10.9 189 28.6
2011-06-16 14:48:36 51°29.359 2°59.374 198.3 10.9 192 30.9
2011-06-16 14:49:36 51°29.189 2°59.282 206 10.7 201 31.6
2011-06-16 14:50:36 51°29.023 2°59.172 206.9 10.8 202 31.4
2011-06-16 14:51:36 51°28.856 2°59.069 204.1 10.8 199 31.8
2011-06-16 14:52:36 51°28.684 2°58.971 203.7 10.9 201 32.2
2011-06-16 14:53:36 51°28.513 2°58.869 204.8 11 202 30.8
2011-06-16 14:54:36 51°28.344 2°58.764 203.4 10.9 201 29.3
2011-06-16 14:55:36 51°28.173 2°58.662 202.9 11.1 199 28.4
2011-06-16 14:56:36 51°28 2°58.562 202.3 11 200 27.2
2011-06-16 14:57:36 51°27.827 2°58.459 205.4 11.3 202 25.9
2011-06-16 14:58:36 51°27.655 2°58.338 206.4 11.2 206 23.6
2011-06-16 14:59:36 51°27.482 2°58.231 202.6 11.2 198 20.8
2011-06-16 15:00:36 51°27.307 2°58.125 203.5 11.3 201 19.7
2011-06-16 15:01:36 51°27.132 2°58.017 204.6 11.2 201 16.8
2011-06-16 15:02:36 51°26.962 2°57.902 206.2 11.1 204 18.4
2011-06-16 15:03:36 51°26.791 2°57.788 205 11.1 201 17.1
2011-06-16 15:04:36 51°26.617 2°57.684 203.2 11.1 202 19.6
2011-06-16 15:05:36 51°26.445 2°57.58 203.9 10.9 201 18.4
2011-06-16 15:06:36 51°26.277 2°57.47 205.6 11 204 18.1
2011-06-16 15:07:36 51°26.109 2°57.362 203.6 10.9 201 18.7
2011-06-16 15:08:36 51°25.939 2°57.259 203.6 11 201 19.5
2011-06-16 15:09:36 51°25.769 2°57.153 204.8 10.8 201 21.2
2011-06-16 15:10:36 51°25.601 2°57.048 204.9 10.8 202 23.8
2011-06-16 15:11:36 51°25.432 2°56.948 204 10.9 200 25.3
2011-06-16 15:12:36 51°25.261 2°56.845 204.4 11 202 26.3
2011-06-16 15:13:36 51°25.088 2°56.736 204.2 11.1 199 26.3
2011-06-16 15:14:36 51°24.915 2°56.629 206 11.2 204 25.2
2011-06-16 15:15:36 51°24.744 2°56.52 204.3 11.1 203 25.1
2011-06-16 15:16:36 51°24.569 2°56.413 202.7 11.3 200 24
2011-06-16 15:17:36 51°24.394 2°56.308 204 11.1 202 22.9
2011-06-16 15:18:36 51°24.222 2°56.192 206.1 11.3 203 21.9
2011-06-16 15:19:36 51°24.049 2°56.077 205.5 11.4 202 18.1
2011-06-16 15:20:36 51°23.874 2°55.968 203.4 11.3 200 18.3
2011-06-16 15:21:36 51°23.704 2°55.854 205.4 11.1 203 17.2
2011-06-16 15:22:36 51°23.533 2°55.743 203.6 11 201 20.1
2011-06-16 15:23:36 51°23.359 2°55.634 205.1 11.3 203 19.7
2011-06-16 15:24:36 51°23.187 2°55.516 204.9 11.3 201 20.8
2011-06-16 15:25:36 51°23.01 2°55.412 203.9 11.6 202 20.5
2011-06-16 15:26:37 51°22.83 2°55.299 204.5 11.5 201 20
2011-06-16 15:27:36 51°22.655 2°55.182 205.9 11.4 205 20.4
2011-06-16 15:28:37 51°22.475 2°55.063 203.5 11.6 201 19.5
2011-06-16 15:29:36 51°22.296 2°54.958 203.2 11.8 200 20.1
2011-06-16 15:30:36 51°22.113 2°54.847 204.4 11.6 202 20
2011-06-16 15:31:36 51°21.934 2°54.73 204.2 11.7 202 18.9
2011-06-16 15:32:36 51°21.754 2°54.617 204.8 11.6 203 18.6
2011-06-16 15:33:36 51°21.575 2°54.5 204.5 11.8 203 18.6
2011-06-16 15:34:36 51°21.394 2°54.382 204.7 11.7 202 18.2
2011-06-16 15:35:36 51°21.212 2°54.27 203.2 11.4 201 18.4
2011-06-16 15:36:36 51°21.031 2°54.165 203.5 11.4 203 18
2011-06-16 15:37:36 51°20.854 2°54.055 203.3 11.4 200 18.1
2011-06-16 15:38:36 51°20.677 2°53.944 204 11.4 201 17.9
2011-06-16 15:39:36 51°20.498 2°53.835 201.7 11.7 201 17.5
2011-06-16 15:40:36 51°20.314 2°53.74 201.5 11.6 199 17.3
2011-06-16 15:41:36 51°20.133 2°53.628 203.3 11.7 201 16.7
2011-06-16 15:42:36 51°19.95 2°53.525 201.5 11.5 198 16.2
2011-06-16 15:43:36 51°19.768 2°53.42 202.9 11.6 200 15.2
2011-06-16 15:44:36 51°19.584 2°53.31 202.6 11.7 200 15.1
2011-06-16 15:45:36 51°19.402 2°53.199 202.1 11.7 201 14.7
2011-06-16 15:46:37 51°19.216 2°53.087 202.9 11.7 200 14.2
2011-06-16 15:47:36 51°19.037 2°52.98 202.7 11.7 201 13.4
2011-06-16 15:48:36 51°18.855 2°52.872 201.9 11.7 201 13.3
2011-06-16 15:49:36 51°18.669 2°52.79 192.8 11.6 189 13.2
2011-06-16 15:50:36 51°18.475 2°52.747 189.5 11.8 189 12.1
2011-06-16 15:51:36 51°18.281 2°52.701 189.6 11.8 190 12.1
2011-06-16 15:52:36 51°18.087 2°52.647 191.4 11.8 190 11.6
2011-06-16 15:53:36 51°17.893 2°52.599 190.6 11.7 188 11.5
2011-06-16 15:54:36 51°17.7 2°52.541 191.9 11.7 190 11.3
2011-06-16 15:55:36 51°17.505 2°52.487 188.7 11.9 189 11.1
2011-06-16 15:56:36 51°17.307 2°52.503 174.4 11.9 169 11.1
2011-06-16 15:57:36 51°17.11 2°52.562 167.8 12.1 165 10.9
2011-06-16 15:58:36 51°16.918 2°52.657 164.1 12.2 164 10.4
2011-06-16 15:59:36 51°16.725 2°52.75 165 12.2 161 11.4
2011-06-16 16:00:36 51°16.533 2°52.865 161.2 12.4 157 12.7
2011-06-16 16:01:36 51°16.353 2°53.023 151.1 12.5 146 13.2
2011-06-16 16:02:36 51°16.178 2°53.201 151.5 12.8 144 12.9
2011-06-16 16:03:36 51°15.997 2°53.356 159.2 12.3 161 12.6
2011-06-16 16:04:36 51°15.807 2°53.482 159.9 12.5 154 13.1
2011-06-16 16:05:36 51°15.625 2°53.639 147.1 12.5 144 12.2
2011-06-16 16:06:36 51°15.462 2°53.843 140 12.5 138 12.9
2011-06-16 16:07:36 51°15.31 2°54.069 136 12.5 134 13.4
2011-06-16 16:08:36 51°15.154 2°54.288 141.5 12.5 141 13
2011-06-16 16:09:36 51°14.993 2°54.5 145.2 12.6 138 12.9
2011-06-16 16:10:36 51°14.831 2°54.703 142.7 12.5 145 13.3
2011-06-16 16:11:36 51°14.66 2°54.889 148.1 12.2 145 12.8
2011-06-16 16:12:36 51°14.482 2°55.052 155.1 12.1 151 11.2
2011-06-16 16:13:36 51°14.317 2°55.232 146.1 11.4 147 10.9
2011-06-16 16:14:37 51°14.171 2°55.38 147.7 9.7 149 11.3
2011-06-16 16:15:40 51°14.029 2°55.496 156.9 7.6 158 -999
2011-06-16 16:16:40 51°13.929 2°55.559 158.9 6 159 -999
2011-06-16 16:17:40 51°13.827 2°55.627 155.4 7 154 -999
2011-06-16 16:18:39 51°13.744 2°55.731 134.1 5.8 134 11.5
2011-06-16 16:19:38 51°13.694 2°55.833 124.5 4.4 124 11
2011-06-16 16:20:38 51°13.657 2°55.919 122.6 3.9 119 10.5
2011-06-16 16:21:37 51°13.639 2°56.004 106.9 2.8 105 8.1
2011-06-16 16:24:12 51°13.636 2°56.02 127.4 -999 -999 -999
2011-06-16 16:25:11 51°13.636 2°56.019 124.6 -999 311 -999
2011-06-16 16:26:11 51°13.636 2°56.017 124.7 -999 343 -999
2011-06-16 16:27:11 51°13.636 2°56.018 125.5 0.1 271 -999
2011-06-16 16:28:11 51°13.636 2°56.017 125.9 0.3 293 -999
2011-06-16 16:29:12 51°13.637 2°56.017 124.6 -999 54 -999
2011-06-16 16:30:11 51°13.636 2°56.018 124.9 -999 258 -999
2011-06-16 16:31:12 51°13.636 2°56.018 124.9 -999 163 -999